sensor_id;sensor_type;location;lat;lon;timestamp;pressure;altitude;pressure_sealevel;temperature;humidity
11810;BME280;5962;41.566;23.734;2024-02-04T00:00:11;95838.78;;;-0.52;100.00
11810;BME280;5962;41.566;23.734;2024-02-04T00:02:40;95829.16;;;-0.52;100.00
11810;BME280;5962;41.566;23.734;2024-02-04T00:05:08;95817.47;;;-0.56;100.00
11810;BME280;5962;41.566;23.734;2024-02-04T00:07:36;95828.53;;;-0.54;100.00
11810;BME280;5962;41.566;23.734;2024-02-04T00:10:06;95827.03;;;-0.56;100.00
11810;BME280;5962;41.566;23.734;2024-02-04T00:12:34;95818.44;;;-0.57;100.00
11810;BME280;5962;41.566;23.734;2024-02-04T00:15:02;95815.31;;;-0.60;100.00
11810;BME280;5962;41.566;23.734;2024-02-04T00:17:31;95806.88;;;-0.70;100.00
11810;BME280;5962;41.566;23.734;2024-02-04T00:20:01;95813.88;;;-0.63;100.00
11810;BME280;5962;41.566;23.734;2024-02-04T00:22:30;95813.88;;;-0.63;100.00
11810;BME280;5962;41.566;23.734;2024-02-04T00:24:58;95802.84;;;-0.57;100.00
11810;BME280;5962;41.566;23.734;2024-02-04T00:27:33;95808.84;;;-0.56;100.00
11810;BME280;5962;41.566;23.734;2024-02-04T00:30:01;95814.88;;;-0.48;100.00
11810;BME280;5962;41.566;23.734;2024-02-04T00:32:29;95817.78;;;-0.51;100.00
11810;BME280;5962;41.566;23.734;2024-02-04T00:34:57;95819.91;;;-0.54;100.00
11810;BME280;5962;41.566;23.734;2024-02-04T00:37:25;95817.47;;;-0.56;100.00
11810;BME280;5962;41.566;23.734;2024-02-04T00:39:53;95822.03;;;-0.58;100.00
11810;BME280;5962;41.566;23.734;2024-02-04T00:42:21;95824.13;;;-0.61;100.00
11810;BME280;5962;41.566;23.734;2024-02-04T00:44:50;95827.06;;;-0.64;100.00
11810;BME280;5962;41.566;23.734;2024-02-04T00:47:18;95822.34;;;-0.69;100.00
11810;BME280;5962;41.566;23.734;2024-02-04T00:49:46;95820.19;;;-0.73;100.00
11810;BME280;5962;41.566;23.734;2024-02-04T00:52:14;95814.38;;;-0.75;100.00
11810;BME280;5962;41.566;23.734;2024-02-04T00:54:42;95815.66;;;-0.79;100.00
11810;BME280;5962;41.566;23.734;2024-02-04T00:57:10;95815.00;;;-0.81;100.00
11810;BME280;5962;41.566;23.734;2024-02-04T00:59:38;95819.22;;;-0.80;100.00
11810;BME280;5962;41.566;23.734;2024-02-04T01:02:07;95810.63;;;-0.81;100.00
11810;BME280;5962;41.566;23.734;2024-02-04T01:04:35;95814.34;;;-0.83;100.00
11810;BME280;5962;41.566;23.734;2024-02-04T01:07:03;95815.16;;;-0.83;100.00
11810;BME280;5962;41.566;23.734;2024-02-04T01:09:31;95807.84;;;-0.79;100.00
11810;BME280;5962;41.566;23.734;2024-02-04T01:11:59;95816.28;;;-0.85;100.00
11810;BME280;5962;41.566;23.734;2024-02-04T01:14:27;95815.78;;;-0.89;100.00
11810;BME280;5962;41.566;23.734;2024-02-04T01:16:55;95804.72;;;-0.91;100.00
11810;BME280;5962;41.566;23.734;2024-02-04T01:19:24;95817.41;;;-0.95;100.00
11810;BME280;5962;41.566;23.734;2024-02-04T01:21:52;95808.47;;;-0.93;100.00
11810;BME280;5962;41.566;23.734;2024-02-04T01:24:20;95808.13;;;-0.98;100.00
11810;BME280;5962;41.566;23.734;2024-02-04T01:26:48;95809.56;;;-1.03;100.00
11810;BME280;5962;41.566;23.734;2024-02-04T01:29:17;95806.19;;;-1.04;100.00
11810;BME280;5962;41.566;23.734;2024-02-04T01:31:45;95809.25;;;-1.00;100.00
11810;BME280;5962;41.566;23.734;2024-02-04T01:34:13;95811.50;;;-1.05;100.00
11810;BME280;5962;41.566;23.734;2024-02-04T01:36:42;95810.38;;;-1.11;100.00
11810;BME280;5962;41.566;23.734;2024-02-04T01:39:10;95810.03;;;-1.16;100.00
11810;BME280;5962;41.566;23.734;2024-02-04T01:41:38;95805.81;;;-1.17;100.00
11810;BME280;5962;41.566;23.734;2024-02-04T01:44:06;95794.59;;;-1.17;100.00
11810;BME280;5962;41.566;23.734;2024-02-04T01:46:34;95800.28;;;-1.14;100.00
11810;BME280;5962;41.566;23.734;2024-02-04T01:49:02;95793.16;;;-1.12;100.00
11810;BME280;5962;41.566;23.734;2024-02-04T01:51:30;95784.06;;;-1.08;100.00
11810;BME280;5962;41.566;23.734;2024-02-04T01:54:00;95792.34;;;-1.04;100.00
11810;BME280;5962;41.566;23.734;2024-02-04T01:56:27;95795.47;;;-0.93;100.00
11810;BME280;5962;41.566;23.734;2024-02-04T01:58:55;95785.69;;;-0.99;100.00
11810;BME280;5962;41.566;23.734;2024-02-04T02:01:23;95787.66;;;-1.01;100.00
11810;BME280;5962;41.566;23.734;2024-02-04T02:03:52;95795.13;;;-1.06;100.00
11810;BME280;5962;41.566;23.734;2024-02-04T02:06:20;95792.69;;;-0.99;100.00
11810;BME280;5962;41.566;23.734;2024-02-04T02:08:49;95786.97;;;-1.11;100.00
11810;BME280;5962;41.566;23.734;2024-02-04T02:11:21;95766.50;;;-1.22;100.00
11810;BME280;5962;41.566;23.734;2024-02-04T02:13:57;95790.53;;;-1.12;100.00
11810;BME280;5962;41.566;23.734;2024-02-04T02:16:30;95790.06;;;-1.15;100.00
11810;BME280;5962;41.566;23.734;2024-02-04T02:19:03;95780.94;;;-1.19;100.00
11810;BME280;5962;41.566;23.734;2024-02-04T02:21:46;95777.38;;;-1.18;100.00
11810;BME280;5962;41.566;23.734;2024-02-04T02:24:31;95779.16;;;-1.19;100.00
11810;BME280;5962;41.566;23.734;2024-02-04T02:27:00;95784.50;;;-1.20;100.00
11810;BME280;5962;41.566;23.734;2024-02-04T02:29:28;95776.09;;;-1.22;100.00
11810;BME280;5962;41.566;23.734;2024-02-04T02:31:56;95785.03;;;-1.17;100.00
11810;BME280;5962;41.566;23.734;2024-02-04T02:34:25;95788.13;;;-1.13;100.00
11810;BME280;5962;41.566;23.734;2024-02-04T02:36:59;95794.13;;;-1.13;100.00
11810;BME280;5962;41.566;23.734;2024-02-04T02:39:34;95792.81;;;-1.17;100.00
11810;BME280;5962;41.566;23.734;2024-02-04T02:42:06;95796.41;;;-1.18;100.00
11810;BME280;5962;41.566;23.734;2024-02-04T02:44:34;95800.75;;;-1.18;100.00
11810;BME280;5962;41.566;23.734;2024-02-04T02:47:05;95809.38;;;-1.18;100.00
11810;BME280;5962;41.566;23.734;2024-02-04T02:49:34;95807.91;;;-1.20;100.00
11810;BME280;5962;41.566;23.734;2024-02-04T02:52:02;95802.88;;;-1.22;100.00
11810;BME280;5962;41.566;23.734;2024-02-04T02:54:31;95804.19;;;-1.18;100.00
11810;BME280;5962;41.566;23.734;2024-02-04T02:56:59;95808.25;;;-1.23;100.00
11810;BME280;5962;41.566;23.734;2024-02-04T02:59:27;95808.06;;;-1.22;100.00
11810;BME280;5962;41.566;23.734;2024-02-04T03:01:55;95816.84;;;-1.23;100.00
11810;BME280;5962;41.566;23.734;2024-02-04T03:04:23;95804.81;;;-1.24;100.00
11810;BME280;5962;41.566;23.734;2024-02-04T03:06:51;95810.19;;;-1.25;100.00
11810;BME280;5962;41.566;23.734;2024-02-04T03:09:19;95807.94;;;-1.12;100.00
11810;BME280;5962;41.566;23.734;2024-02-04T03:11:49;95818.94;;;-1.18;100.00
11810;BME280;5962;41.566;23.734;2024-02-04T03:14:17;95814.91;;;-1.21;100.00
11810;BME280;5962;41.566;23.734;2024-02-04T03:16:45;95812.78;;;-1.25;100.00
11810;BME280;5962;41.566;23.734;2024-02-04T03:19:13;95826.44;;;-1.23;100.00
11810;BME280;5962;41.566;23.734;2024-02-04T03:21:41;95818.94;;;-1.26;100.00
11810;BME280;5962;41.566;23.734;2024-02-04T03:24:09;95826.63;;;-1.17;100.00
11810;BME280;5962;41.566;23.734;2024-02-04T03:26:37;95828.69;;;-1.20;100.00
11810;BME280;5962;41.566;23.734;2024-02-04T03:29:06;95828.84;;;-1.22;100.00
11810;BME280;5962;41.566;23.734;2024-02-04T03:31:34;95822.84;;;-1.22;100.00
11810;BME280;5962;41.566;23.734;2024-02-04T03:34:02;95823.50;;;-1.20;100.00
11810;BME280;5962;41.566;23.734;2024-02-04T03:36:30;95821.91;;;-1.21;100.00
11810;BME280;5962;41.566;23.734;2024-02-04T03:38:59;95816.56;;;-1.04;100.00
11810;BME280;5962;41.566;23.734;2024-02-04T03:41:27;95809.69;;;-1.21;100.00
11810;BME280;5962;41.566;23.734;2024-02-04T03:43:55;95809.09;;;-1.15;100.00
11810;BME280;5962;41.566;23.734;2024-02-04T03:46:24;95806.13;;;-1.12;100.00
11810;BME280;5962;41.566;23.734;2024-02-04T03:48:52;95811.50;;;-1.21;100.00
11810;BME280;5962;41.566;23.734;2024-02-04T03:51:20;95806.75;;;-1.26;100.00
11810;BME280;5962;41.566;23.734;2024-02-04T03:53:49;95798.47;;;-1.29;100.00
11810;BME280;5962;41.566;23.734;2024-02-04T03:56:18;95806.56;;;-1.32;100.00
11810;BME280;5962;41.566;23.734;2024-02-04T03:58:46;95806.72;;;-1.34;100.00
11810;BME280;5962;41.566;23.734;2024-02-04T04:01:14;95810.13;;;-1.33;100.00
11810;BME280;5962;41.566;23.734;2024-02-04T04:03:43;95815.69;;;-1.28;100.00
11810;BME280;5962;41.566;23.734;2024-02-04T04:06:11;95813.91;;;-1.28;100.00
11810;BME280;5962;41.566;23.734;2024-02-04T04:08:39;95810.78;;;-1.31;100.00
11810;BME280;5962;41.566;23.734;2024-02-04T04:11:08;95791.81;;;-1.32;100.00
11810;BME280;5962;41.566;23.734;2024-02-04T04:13:37;95774.03;;;-1.44;100.00
11810;BME280;5962;41.566;23.734;2024-02-04T04:16:05;95807.09;;;-1.29;100.00
11810;BME280;5962;41.566;23.734;2024-02-04T04:18:33;95802.84;;;-1.30;100.00
11810;BME280;5962;41.566;23.734;2024-02-04T04:21:03;95812.91;;;-1.27;100.00
11810;BME280;5962;41.566;23.734;2024-02-04T04:23:31;95800.56;;;-1.25;100.00
11810;BME280;5962;41.566;23.734;2024-02-04T04:25:59;95804.78;;;-1.32;100.00
11810;BME280;5962;41.566;23.734;2024-02-04T04:28:28;95806.75;;;-1.26;100.00
11810;BME280;5962;41.566;23.734;2024-02-04T04:30:56;95801.41;;;-1.24;100.00
11810;BME280;5962;41.566;23.734;2024-02-04T04:33:24;95792.13;;;-1.27;100.00
11810;BME280;5962;41.566;23.734;2024-02-04T04:35:52;95790.34;;;-1.26;100.00
11810;BME280;5962;41.566;23.734;2024-02-04T04:38:21;95788.09;;;-1.21;100.00
11810;BME280;5962;41.566;23.734;2024-02-04T04:40:49;95790.41;;;-1.10;100.00
11810;BME280;5962;41.566;23.734;2024-02-04T04:43:17;95785.22;;;-1.10;100.00
11810;BME280;5962;41.566;23.734;2024-02-04T04:45:45;95779.53;;;-1.06;100.00
11810;BME280;5962;41.566;23.734;2024-02-04T04:48:13;95779.84;;;-1.09;100.00
11810;BME280;5962;41.566;23.734;2024-02-04T04:50:41;95785.53;;;-1.05;100.00
11810;BME280;5962;41.566;23.734;2024-02-04T04:53:09;95788.47;;;-1.00;100.00
11810;BME280;5962;41.566;23.734;2024-02-04T04:55:38;95789.94;;;-0.98;100.00
11810;BME280;5962;41.566;23.734;2024-02-04T04:58:06;95782.97;;;-0.97;100.00
11810;BME280;5962;41.566;23.734;2024-02-04T05:00:34;95784.72;;;-0.98;100.00
11810;BME280;5962;41.566;23.734;2024-02-04T05:03:03;95783.09;;;-0.99;100.00
11810;BME280;5962;41.566;23.734;2024-02-04T05:05:31;95776.94;;;-0.98;100.00
11810;BME280;5962;41.566;23.734;2024-02-04T05:07:59;95777.94;;;-0.91;100.00
11810;BME280;5962;41.566;23.734;2024-02-04T05:10:27;95767.84;;;-1.02;100.00
11810;BME280;5962;41.566;23.734;2024-02-04T05:12:57;95781.81;;;-1.03;100.00
11810;BME280;5962;41.566;23.734;2024-02-04T05:15:25;95786.13;;;-1.19;100.00
11810;BME280;5962;41.566;23.734;2024-02-04T05:17:53;95771.84;;;-1.23;100.00
11810;BME280;5962;41.566;23.734;2024-02-04T05:20:21;95770.53;;;-1.19;100.00
11810;BME280;5962;41.566;23.734;2024-02-04T05:22:49;95783.53;;;-1.27;100.00
11810;BME280;5962;41.566;23.734;2024-02-04T05:25:17;95792.91;;;-1.42;100.00
11810;BME280;5962;41.566;23.734;2024-02-04T05:27:45;95792.41;;;-1.46;100.00
11810;BME280;5962;41.566;23.734;2024-02-04T05:30:15;95784.91;;;-1.57;100.00
11810;BME280;5962;41.566;23.734;2024-02-04T05:32:43;95782.78;;;-1.61;100.00
11810;BME280;5962;41.566;23.734;2024-02-04T05:35:11;95788.09;;;-1.71;100.00
11810;BME280;5962;41.566;23.734;2024-02-04T05:37:39;95798.94;;;-1.75;100.00
11810;BME280;5962;41.566;23.734;2024-02-04T05:40:08;95803.47;;;-1.77;100.00
11810;BME280;5962;41.566;23.734;2024-02-04T05:42:36;95785.75;;;-1.82;100.00
11810;BME280;5962;41.566;23.734;2024-02-04T05:45:04;95783.34;;;-1.75;100.00
11810;BME280;5962;41.566;23.734;2024-02-04T05:47:34;95787.56;;;-1.74;100.00
11810;BME280;5962;41.566;23.734;2024-02-04T05:50:03;95786.16;;;-1.61;100.00
11810;BME280;5962;41.566;23.734;2024-02-04T05:52:32;95782.41;;;-1.66;100.00
11810;BME280;5962;41.566;23.734;2024-02-04T05:55:00;95778.19;;;-1.67;100.00
11810;BME280;5962;41.566;23.734;2024-02-04T05:57:28;95795.75;;;-1.61;100.00
11810;BME280;5962;41.566;23.734;2024-02-04T05:59:56;95795.78;;;-1.53;100.00
11810;BME280;5962;41.566;23.734;2024-02-04T06:02:26;95800.16;;;-1.54;100.00
11810;BME280;5962;41.566;23.734;2024-02-04T06:04:55;95798.75;;;-1.40;100.00
11810;BME280;5962;41.566;23.734;2024-02-04T06:07:23;95799.13;;;-1.27;100.00
11810;BME280;5962;41.566;23.734;2024-02-04T06:09:51;95811.44;;;-1.29;100.00
11810;BME280;5962;41.566;23.734;2024-02-04T06:12:19;95806.59;;;-1.24;100.00
11810;BME280;5962;41.566;23.734;2024-02-04T06:14:47;95798.34;;;-1.12;100.00
11810;BME280;5962;41.566;23.734;2024-02-04T06:17:15;95813.66;;;-1.01;100.00
11810;BME280;5962;41.566;23.734;2024-02-04T06:19:43;95804.25;;;-0.94;100.00
11810;BME280;5962;41.566;23.734;2024-02-04T06:22:13;95816.94;;;-0.83;100.00
11810;BME280;5962;41.566;23.734;2024-02-04T06:24:41;95807.50;;;-0.84;100.00
11810;BME280;5962;41.566;23.734;2024-02-04T06:30:21;95815.50;;;-0.70;100.00
11810;BME280;5962;41.566;23.734;2024-02-04T06:32:49;95815.50;;;-0.62;100.00
11810;BME280;5962;41.566;23.734;2024-02-04T06:35:17;95798.44;;;-0.56;100.00
11810;BME280;5962;41.566;23.734;2024-02-04T06:37:46;95785.91;;;-0.45;100.00
11810;BME280;5962;41.566;23.734;2024-02-04T06:40:14;95784.78;;;-0.34;100.00
11810;BME280;5962;41.566;23.734;2024-02-04T06:42:42;95807.56;;;-0.20;100.00
11810;BME280;5962;41.566;23.734;2024-02-04T06:45:11;95806.84;;;-0.06;100.00
11810;BME280;5962;41.566;23.734;2024-02-04T06:47:39;95804.22;;;0.09;100.00
11810;BME280;5962;41.566;23.734;2024-02-04T06:50:07;95797.72;;;0.13;100.00
11810;BME280;5962;41.566;23.734;2024-02-04T06:52:40;95788.59;;;0.17;100.00
11810;BME280;5962;41.566;23.734;2024-02-04T06:55:10;95785.78;;;0.27;100.00
11810;BME280;5962;41.566;23.734;2024-02-04T06:57:38;95787.75;;;0.33;100.00
11810;BME280;5962;41.566;23.734;2024-02-04T07:00:07;95783.63;;;0.46;100.00
11810;BME280;5962;41.566;23.734;2024-02-04T07:02:36;95776.25;;;0.58;100.00
11810;BME280;5962;41.566;23.734;2024-02-04T07:05:04;95785.34;;;0.62;100.00
11810;BME280;5962;41.566;23.734;2024-02-04T07:07:32;95791.50;;;0.77;100.00
11810;BME280;5962;41.566;23.734;2024-02-04T07:10:02;95801.00;;;0.62;100.00
11810;BME280;5962;41.566;23.734;2024-02-04T07:12:31;95790.66;;;0.38;100.00
11810;BME280;5962;41.566;23.734;2024-02-04T07:14:59;95816.22;;;0.42;100.00
11810;BME280;5962;41.566;23.734;2024-02-04T07:17:27;95813.00;;;0.24;100.00
11810;BME280;5962;41.566;23.734;2024-02-04T07:19:55;95814.97;;;0.14;100.00
11810;BME280;5962;41.566;23.734;2024-02-04T07:22:23;95815.31;;;0.19;100.00
11810;BME280;5962;41.566;23.734;2024-02-04T07:24:51;95820.97;;;0.31;100.00
11810;BME280;5962;41.566;23.734;2024-02-04T07:27:19;95813.91;;;0.47;100.00
11810;BME280;5962;41.566;23.734;2024-02-04T07:29:49;95801.44;;;0.73;100.00
11810;BME280;5962;41.566;23.734;2024-02-04T07:32:17;95799.06;;;0.94;100.00
11810;BME280;5962;41.566;23.734;2024-02-04T07:34:45;95791.03;;;1.03;100.00
11810;BME280;5962;41.566;23.734;2024-02-04T07:37:13;95808.25;;;1.12;100.00
11810;BME280;5962;41.566;23.734;2024-02-04T07:39:41;95818.16;;;1.17;100.00
11810;BME280;5962;41.566;23.734;2024-02-04T07:42:09;95823.88;;;1.20;100.00
11810;BME280;5962;41.566;23.734;2024-02-04T07:44:37;95827.19;;;1.37;100.00
11810;BME280;5962;41.566;23.734;2024-02-04T07:47:07;95827.22;;;1.51;100.00
11810;BME280;5962;41.566;23.734;2024-02-04T07:49:35;95829.06;;;1.51;100.00
11810;BME280;5962;41.566;23.734;2024-02-04T07:52:03;95836.81;;;1.59;100.00
11810;BME280;5962;41.566;23.734;2024-02-04T07:54:31;95806.81;;;1.55;100.00
11810;BME280;5962;41.566;23.734;2024-02-04T07:56:59;95809.53;;;1.61;99.84
11810;BME280;5962;41.566;23.734;2024-02-04T07:59:27;95813.16;;;1.38;100.00
11810;BME280;5962;41.566;23.734;2024-02-04T08:01:55;95811.22;;;1.32;100.00
11810;BME280;5962;41.566;23.734;2024-02-04T08:04:25;95795.78;;;1.45;100.00
11810;BME280;5962;41.566;23.734;2024-02-04T08:06:53;95774.50;;;1.56;100.00
11810;BME280;5962;41.566;23.734;2024-02-04T08:09:21;95789.69;;;1.75;100.00
11810;BME280;5962;41.566;23.734;2024-02-04T08:11:49;95787.09;;;1.89;100.00
11810;BME280;5962;41.566;23.734;2024-02-04T08:14:17;95790.66;;;1.96;99.09
11810;BME280;5962;41.566;23.734;2024-02-04T08:16:45;95782.59;;;1.83;99.01
11810;BME280;5962;41.566;23.734;2024-02-04T08:19:15;95783.28;;;1.77;100.00
11810;BME280;5962;41.566;23.734;2024-02-04T08:21:44;95788.53;;;1.77;100.00
11810;BME280;5962;41.566;23.734;2024-02-04T08:24:12;95797.97;;;1.78;98.32
11810;BME280;5962;41.566;23.734;2024-02-04T08:26:40;95781.97;;;1.81;100.00
11810;BME280;5962;41.566;23.734;2024-02-04T08:29:09;95799.94;;;1.98;100.00
11810;BME280;5962;41.566;23.734;2024-02-04T08:31:37;95804.75;;;2.24;100.00
11810;BME280;5962;41.566;23.734;2024-02-04T08:34:05;95806.81;;;2.28;95.88
11810;BME280;5962;41.566;23.734;2024-02-04T08:36:34;95796.47;;;2.20;96.91
11810;BME280;5962;41.566;23.734;2024-02-04T08:39:03;95779.41;;;2.24;98.05
11810;BME280;5962;41.566;23.734;2024-02-04T08:41:31;95785.75;;;2.44;96.86
11810;BME280;5962;41.566;23.734;2024-02-04T08:43:59;95805.47;;;2.47;96.61
11810;BME280;5962;41.566;23.734;2024-02-04T08:46:27;95792.13;;;2.27;96.56
11810;BME280;5962;41.566;23.734;2024-02-04T08:48:55;95783.75;;;2.17;97.58
11810;BME280;5962;41.566;23.734;2024-02-04T08:51:23;95791.53;;;2.40;98.67
11810;BME280;5962;41.566;23.734;2024-02-04T08:53:53;95794.41;;;2.59;97.67
11810;BME280;5962;41.566;23.734;2024-02-04T08:56:22;95791.66;;;2.81;94.97
11810;BME280;5962;41.566;23.734;2024-02-04T08:58:50;95787.50;;;3.01;93.63
11810;BME280;5962;41.566;23.734;2024-02-04T09:01:19;95777.50;;;3.26;92.28
11810;BME280;5962;41.566;23.734;2024-02-04T09:03:47;95778.78;;;3.51;91.68
11810;BME280;5962;41.566;23.734;2024-02-04T09:06:15;95790.44;;;3.69;88.62
11810;BME280;5962;41.566;23.734;2024-02-04T09:08:43;95786.25;;;3.74;87.28
11810;BME280;5962;41.566;23.734;2024-02-04T09:11:11;95790.88;;;3.72;87.86
11810;BME280;5962;41.566;23.734;2024-02-04T09:13:46;95793.78;;;3.84;86.63
11810;BME280;5962;41.566;23.734;2024-02-04T09:16:14;95794.44;;;3.86;86.97
11810;BME280;5962;41.566;23.734;2024-02-04T09:18:42;95795.69;;;3.96;84.10
11810;BME280;5962;41.566;23.734;2024-02-04T09:21:12;95782.19;;;4.20;84.96
11810;BME280;5962;41.566;23.734;2024-02-04T09:23:40;95803.38;;;4.46;82.92
11810;BME280;5962;41.566;23.734;2024-02-04T09:26:08;95784.28;;;4.65;80.76
11810;BME280;5962;41.566;23.734;2024-02-04T09:28:36;95780.75;;;4.85;81.04
11810;BME280;5962;41.566;23.734;2024-02-04T09:31:07;95767.72;;;5.05;81.00
11810;BME280;5962;41.566;23.734;2024-02-04T09:33:36;95780.50;;;5.14;77.43
11810;BME280;5962;41.566;23.734;2024-02-04T09:36:04;95763.13;;;5.20;77.88
11810;BME280;5962;41.566;23.734;2024-02-04T09:38:33;95754.09;;;5.35;77.25
11810;BME280;5962;41.566;23.734;2024-02-04T09:41:01;95756.13;;;5.40;75.24
11810;BME280;5962;41.566;23.734;2024-02-04T09:43:31;95748.66;;;5.37;76.12
11810;BME280;5962;41.566;23.734;2024-02-04T09:46:00;95747.22;;;5.28;75.44
11810;BME280;5962;41.566;23.734;2024-02-04T09:48:31;95745.59;;;5.27;75.46
11810;BME280;5962;41.566;23.734;2024-02-04T09:51:00;95740.44;;;4.99;77.07
11810;BME280;5962;41.566;23.734;2024-02-04T09:53:32;95741.22;;;4.87;76.90
11810;BME280;5962;41.566;23.734;2024-02-04T09:56:01;95738.34;;;4.75;77.84
11810;BME280;5962;41.566;23.734;2024-02-04T09:58:29;95725.97;;;4.69;78.63
11810;BME280;5962;41.566;23.734;2024-02-04T10:00:59;95724.81;;;4.72;79.07
11810;BME280;5962;41.566;23.734;2024-02-04T10:03:29;95711.50;;;4.80;79.91
11810;BME280;5962;41.566;23.734;2024-02-04T10:05:57;95709.78;;;5.06;78.45
11810;BME280;5962;41.566;23.734;2024-02-04T10:08:25;95704.56;;;5.19;77.31
11810;BME280;5962;41.566;23.734;2024-02-04T10:10:53;95714.69;;;5.22;76.35
11810;BME280;5962;41.566;23.734;2024-02-04T10:13:21;95709.78;;;5.06;77.92
11810;BME280;5962;41.566;23.734;2024-02-04T10:15:51;95701.31;;;5.17;77.90
11810;BME280;5962;41.566;23.734;2024-02-04T10:18:19;95692.44;;;5.18;78.47
11810;BME280;5962;41.566;23.734;2024-02-04T10:20:49;95693.25;;;5.25;77.53
11810;BME280;5962;41.566;23.734;2024-02-04T10:23:17;95687.19;;;5.25;78.07
11810;BME280;5962;41.566;23.734;2024-02-04T10:25:45;95667.41;;;5.22;78.28
11810;BME280;5962;41.566;23.734;2024-02-04T10:28:14;95662.56;;;5.19;78.53
11810;BME280;5962;41.566;23.734;2024-02-04T10:30:42;95662.56;;;5.32;77.75
11810;BME280;5962;41.566;23.734;2024-02-04T10:33:10;95663.19;;;5.41;77.73
11810;BME280;5962;41.566;23.734;2024-02-04T10:35:38;95629.66;;;5.49;77.59
11810;BME280;5962;41.566;23.734;2024-02-04T10:38:08;95662.38;;;5.72;77.33
11810;BME280;5962;41.566;23.734;2024-02-04T10:40:36;95659.97;;;5.77;76.25
11810;BME280;5962;41.566;23.734;2024-02-04T10:43:04;95674.50;;;5.73;77.11
11810;BME280;5962;41.566;23.734;2024-02-04T10:45:34;95670.47;;;5.71;76.63
11810;BME280;5962;41.566;23.734;2024-02-04T10:48:04;95666.44;;;5.68;76.35
11810;BME280;5962;41.566;23.734;2024-02-04T10:50:34;95659.75;;;5.66;76.92
11810;BME280;5962;41.566;23.734;2024-02-04T10:53:04;95649.69;;;5.82;76.20
11810;BME280;5962;41.566;23.734;2024-02-04T10:55:39;95650.84;;;5.86;75.95
11810;BME280;5962;41.566;23.734;2024-02-04T10:58:09;95636.09;;;5.85;75.38
11810;BME280;5962;41.566;23.734;2024-02-04T11:00:38;95651.00;;;6.24;74.10
11810;BME280;5962;41.566;23.734;2024-02-04T11:03:07;95635.38;;;6.42;72.94
11810;BME280;5962;41.566;23.734;2024-02-04T11:05:36;95619.31;;;6.56;72.03
11810;BME280;5962;41.566;23.734;2024-02-04T11:08:06;95618.06;;;6.58;71.70
11810;BME280;5962;41.566;23.734;2024-02-04T11:10:37;95610.13;;;6.71;71.01
11810;BME280;5962;41.566;23.734;2024-02-04T11:13:08;95606.91;;;6.69;71.57
11810;BME280;5962;41.566;23.734;2024-02-04T11:15:38;95628.88;;;6.88;69.90
11810;BME280;5962;41.566;23.734;2024-02-04T11:18:40;95636.28;;;7.04;69.69
11810;BME280;5962;41.566;23.734;2024-02-04T11:21:26;95642.06;;;7.19;68.53
11810;BME280;5962;41.566;23.734;2024-02-04T11:24:14;95638.78;;;7.30;68.50
11810;BME280;5962;41.566;23.734;2024-02-04T11:26:49;95620.84;;;7.38;67.73
11810;BME280;5962;41.566;23.734;2024-02-04T11:29:17;95611.44;;;7.48;67.89
11810;BME280;5962;41.566;23.734;2024-02-04T11:31:45;95617.44;;;7.62;67.77
11810;BME280;5962;41.566;23.734;2024-02-04T11:34:13;95603.31;;;7.74;66.30
11810;BME280;5962;41.566;23.734;2024-02-04T11:36:41;95575.00;;;7.88;66.12
11810;BME280;5962;41.566;23.734;2024-02-04T11:39:13;95591.44;;;7.90;66.23
11810;BME280;5962;41.566;23.734;2024-02-04T11:41:45;95590.63;;;8.07;65.33
11810;BME280;5962;41.566;23.734;2024-02-04T11:44:21;95583.66;;;8.13;65.30
11810;BME280;5962;41.566;23.734;2024-02-04T11:46:50;95593.38;;;8.19;64.17
11810;BME280;5962;41.566;23.734;2024-02-04T11:49:19;95574.72;;;8.14;64.90
11810;BME280;5962;41.566;23.734;2024-02-04T11:51:51;95569.66;;;8.12;65.17
11810;BME280;5962;41.566;23.734;2024-02-04T11:54:20;95571.69;;;8.17;65.08
11810;BME280;5962;41.566;23.734;2024-02-04T11:56:49;95586.44;;;8.24;65.25
11810;BME280;5962;41.566;23.734;2024-02-04T11:59:22;95575.84;;;8.42;64.54
11810;BME280;5962;41.566;23.734;2024-02-04T12:01:53;95579.75;;;8.40;64.73
11810;BME280;5962;41.566;23.734;2024-02-04T12:04:22;95583.91;;;8.47;64.19
11810;BME280;5962;41.566;23.734;2024-02-04T12:06:50;95538.88;;;8.42;64.42
11810;BME280;5962;41.566;23.734;2024-02-04T12:09:19;95541.63;;;8.36;64.80
11810;BME280;5962;41.566;23.734;2024-02-04T12:11:48;95537.63;;;8.44;64.30
11810;BME280;5962;41.566;23.734;2024-02-04T12:14:18;95527.31;;;8.43;65.03
11810;BME280;5962;41.566;23.734;2024-02-04T12:16:48;95519.97;;;8.45;65.08
11810;BME280;5962;41.566;23.734;2024-02-04T12:19:16;95537.31;;;8.70;64.58
11810;BME280;5962;41.566;23.734;2024-02-04T12:21:44;95537.19;;;9.06;63.39
11810;BME280;5962;41.566;23.734;2024-02-04T12:24:12;95520.56;;;9.40;61.02
11810;BME280;5962;41.566;23.734;2024-02-04T12:26:40;95529.06;;;9.42;60.99
11810;BME280;5962;41.566;23.734;2024-02-04T12:29:09;95533.56;;;9.41;61.33
11810;BME280;5962;41.566;23.734;2024-02-04T12:31:37;95541.88;;;9.56;60.98
11810;BME280;5962;41.566;23.734;2024-02-04T12:34:08;95514.94;;;9.59;59.78
11810;BME280;5962;41.566;23.734;2024-02-04T12:36:38;95540.81;;;9.69;60.02
11810;BME280;5962;41.566;23.734;2024-02-04T12:39:06;95540.47;;;9.65;60.24
11810;BME280;5962;41.566;23.734;2024-02-04T12:41:36;95532.53;;;9.65;60.13
11810;BME280;5962;41.566;23.734;2024-02-04T12:44:04;95516.56;;;9.49;60.38
11810;BME280;5962;41.566;23.734;2024-02-04T12:46:32;95512.53;;;9.35;60.71
11810;BME280;5962;41.566;23.734;2024-02-04T12:49:01;95520.53;;;9.17;61.41
11810;BME280;5962;41.566;23.734;2024-02-04T12:51:32;95531.84;;;9.24;61.81
11810;BME280;5962;41.566;23.734;2024-02-04T12:54:05;95529.50;;;9.16;61.96
11810;BME280;5962;41.566;23.734;2024-02-04T12:56:44;95525.47;;;9.14;62.38
11810;BME280;5962;41.566;23.734;2024-02-04T12:59:24;95531.91;;;9.06;62.81
11810;BME280;5962;41.566;23.734;2024-02-04T13:01:53;95518.09;;;9.04;62.97
11810;BME280;5962;41.566;23.734;2024-02-04T13:04:22;95509.59;;;9.02;63.54
11810;BME280;5962;41.566;23.734;2024-02-04T13:06:52;95514.44;;;9.05;63.82
11810;BME280;5962;41.566;23.734;2024-02-04T13:09:20;95525.94;;;9.11;63.83